createdAt,value
2022-10-11T00:01:44.243Z,6.67
2022-10-11T00:04:13.892Z,8.60
2022-10-11T00:06:44.916Z,9.88
2022-10-11T00:09:13.639Z,11.65
2022-10-11T00:11:42.080Z,8.77
2022-10-11T00:14:09.985Z,7.60
2022-10-11T00:16:41.248Z,11.57
2022-10-11T00:19:10.456Z,8.07
2022-10-11T00:21:38.434Z,9.95
2022-10-11T00:24:11.667Z,9.88
2022-10-11T00:26:44.391Z,6.57
2022-10-11T00:29:16.040Z,7.70
2022-10-11T00:31:44.813Z,10.23
2022-10-11T00:34:14.161Z,6.80
2022-10-11T00:36:42.989Z,7.78
2022-10-11T00:39:12.295Z,8.87
2022-10-11T00:41:41.857Z,8.43
2022-10-11T00:44:24.782Z,9.55
2022-10-11T00:46:58.540Z,7.80
2022-10-11T00:49:43.597Z,7.20
2022-10-11T00:52:38.077Z,7.70
2022-10-11T00:55:14.931Z,10.50
2022-10-11T00:57:46.989Z,8.57
2022-10-11T01:00:16.333Z,10.88
2022-10-11T01:02:45.625Z,8.85
2022-10-11T01:05:29.260Z,11.67
2022-10-11T01:08:02.894Z,9.68
2022-10-11T01:10:30.884Z,10.90
2022-10-11T01:13:38.495Z,10.85
2022-10-11T01:16:36.355Z,9.38
2022-10-11T01:19:29.867Z,8.40
2022-10-11T01:22:11.293Z,8.77
2022-10-11T01:24:53.776Z,8.35
2022-10-11T01:27:47.317Z,8.82
2022-10-11T01:30:22.413Z,7.10
2022-10-11T01:33:14.039Z,8.37
2022-10-11T01:35:45.949Z,9.35
2022-10-11T01:38:47.370Z,9.73
2022-10-11T01:41:46.500Z,7.72
2022-10-11T01:44:15.192Z,12.45
2022-10-11T01:46:43.674Z,6.50
2022-10-11T01:49:11.636Z,8.38
2022-10-11T01:51:53.579Z,8.73
2022-10-11T01:54:56.671Z,8.25
2022-10-11T01:57:47.109Z,11.13
2022-10-11T02:00:23.823Z,14.30
2022-10-11T02:03:52.936Z,12.15
2022-10-11T02:06:46.908Z,7.82
2022-10-11T02:09:38.025Z,12.93
2022-10-11T02:12:13.196Z,12.00
2022-10-11T02:14:46.992Z,8.80
2022-10-11T02:17:22.185Z,10.95
2022-10-11T02:19:53.881Z,7.05
2022-10-11T02:22:45.517Z,12.23
2022-10-11T02:25:40.334Z,8.23
2022-10-11T02:28:24.797Z,8.33
2022-10-11T02:30:59.452Z,10.23
2022-10-11T02:34:02.448Z,13.50
2022-10-11T02:37:10.737Z,10.07
2022-10-11T02:40:36.605Z,13.15
2022-10-11T02:43:42.862Z,13.67
2022-10-11T02:46:12.080Z,8.63
2022-10-11T02:48:40.164Z,9.93
2022-10-11T02:51:13.844Z,9.93
2022-10-11T02:53:41.802Z,10.60
2022-10-11T02:56:09.461Z,10.13
2022-10-11T02:58:37.654Z,9.35
2022-10-11T03:01:06.831Z,8.95
2022-10-11T03:03:34.870Z,13.05
2022-10-11T03:06:04.856Z,10.13
2022-10-11T03:08:33.472Z,7.90
2022-10-11T03:11:01.186Z,10.27
2022-10-11T03:13:29.228Z,11.48
2022-10-11T03:16:03.389Z,12.05
2022-10-11T03:18:36.476Z,8.80
2022-10-11T03:21:04.648Z,12.93
2022-10-11T03:23:32.766Z,9.55
2022-10-11T03:26:00.647Z,8.80
2022-10-11T03:28:28.861Z,9.52
2022-10-11T03:30:56.749Z,9.52
2022-10-11T03:33:25.035Z,15.03
2022-10-11T03:35:54.042Z,11.73
2022-10-11T03:38:23.372Z,7.18
2022-10-11T03:40:51.580Z,8.73
2022-10-11T03:43:19.489Z,10.13
2022-10-11T03:45:47.459Z,8.80
2022-10-11T03:48:15.691Z,9.90
2022-10-11T03:50:44.424Z,12.80
2022-10-11T03:53:12.277Z,13.15
2022-10-11T03:55:41.356Z,9.35
2022-10-11T03:58:09.982Z,9.17
2022-10-11T04:00:38.225Z,8.45
2022-10-11T04:03:06.150Z,9.77
2022-10-11T04:05:34.507Z,9.13
2022-10-11T04:08:02.503Z,9.20
2022-10-11T04:10:32.456Z,9.07
2022-10-11T04:13:00.213Z,13.27
2022-10-11T04:15:28.337Z,11.52
2022-10-11T04:17:56.796Z,11.32
2022-10-11T04:20:25.175Z,13.75
2022-10-11T04:22:53.208Z,11.43
2022-10-11T04:25:21.299Z,13.23
2022-10-11T04:27:49.397Z,11.32
2022-10-11T04:30:18.513Z,11.80
2022-10-11T04:32:46.651Z,6.82
2022-10-11T04:35:15.234Z,9.00
2022-10-11T04:37:43.075Z,12.70
2022-10-11T04:40:11.765Z,10.50
2022-10-11T04:42:39.611Z,11.43
2022-10-11T04:45:08.215Z,12.40
2022-10-11T04:47:36.172Z,10.80
2022-10-11T04:50:05.104Z,8.40
2022-10-11T04:52:32.898Z,9.48
2022-10-11T04:55:00.696Z,12.45
2022-10-11T04:57:28.593Z,12.35
2022-10-11T04:59:57.471Z,14.50
2022-10-11T05:02:25.475Z,10.50
2022-10-11T05:04:53.315Z,9.27
2022-10-11T05:07:21.227Z,10.82
2022-10-11T05:09:56.001Z,11.40
2022-10-11T05:12:23.742Z,12.53
2022-10-11T05:14:51.704Z,14.20
2022-10-11T05:17:19.657Z,11.15
2022-10-11T05:19:47.445Z,16.15
2022-10-11T05:22:15.526Z,9.30
2022-10-11T05:24:43.295Z,12.83
2022-10-11T05:27:11.298Z,12.75
2022-10-11T05:29:39.197Z,11.57
2022-10-11T05:32:07.143Z,10.13
2022-10-11T05:34:35.130Z,9.00
2022-10-11T05:37:03.182Z,11.30
2022-10-11T05:39:31.151Z,10.20
2022-10-11T05:41:59.432Z,9.40
2022-10-11T05:44:27.322Z,10.15
2022-10-11T05:46:55.333Z,8.32
2022-10-11T05:49:23.099Z,9.50
2022-10-11T05:51:50.892Z,7.93
2022-10-11T05:54:18.747Z,6.22
2022-10-11T05:56:46.715Z,8.77
2022-10-11T05:59:14.963Z,9.30
2022-10-11T06:01:43.235Z,9.90
2022-10-11T06:04:12.085Z,11.35
2022-10-11T06:06:39.857Z,7.55
2022-10-11T06:09:07.655Z,7.57
2022-10-11T06:11:35.554Z,10.90
2022-10-11T06:14:03.279Z,9.73
2022-10-11T06:16:31.586Z,18.88
2022-10-11T06:18:59.417Z,8.20
2022-10-11T06:21:27.498Z,12.30
2022-10-11T06:24:01.527Z,12.05
2022-10-11T06:26:30.063Z,10.17
2022-10-11T06:28:59.070Z,14.23
2022-10-11T06:31:27.522Z,7.72
2022-10-11T06:33:55.382Z,8.15
2022-10-11T06:36:23.420Z,11.13
2022-10-11T06:38:55.351Z,11.07
2022-10-11T06:41:26.623Z,13.30
2022-10-11T06:43:54.643Z,10.43
2022-10-11T06:46:24.587Z,11.10
2022-10-11T06:48:52.945Z,10.02
2022-10-11T06:51:22.311Z,12.33
2022-10-11T06:53:57.062Z,16.95
2022-10-11T06:56:27.026Z,11.02
2022-10-11T06:58:57.860Z,10.00
2022-10-11T07:01:27.245Z,9.15
2022-10-11T07:03:56.857Z,10.17
2022-10-11T07:06:27.561Z,9.07
2022-10-11T07:08:56.116Z,10.55
2022-10-11T07:11:28.590Z,12.75
2022-10-11T07:13:59.494Z,9.05
2022-10-11T07:16:28.612Z,9.93
2022-10-11T07:19:00.752Z,9.38
2022-10-11T07:21:30.605Z,10.48
2022-10-11T07:23:58.532Z,10.32
2022-10-11T07:26:26.863Z,8.80
2022-10-11T07:28:54.921Z,9.80
2022-10-11T07:31:25.000Z,12.77
2022-10-11T07:33:53.129Z,11.10
2022-10-11T07:36:21.196Z,11.05
2022-10-11T07:38:50.919Z,13.57
2022-10-11T07:41:19.558Z,11.00
2022-10-11T07:43:49.915Z,10.52
2022-10-11T07:46:20.844Z,6.70
2022-10-11T07:48:50.533Z,7.97
2022-10-11T07:51:20.705Z,10.20
2022-10-11T07:53:50.575Z,13.60
2022-10-11T07:56:21.029Z,9.05
2022-10-11T07:58:53.903Z,7.28
2022-10-11T08:01:22.550Z,8.85
2022-10-11T08:03:51.142Z,10.95
2022-10-11T08:06:23.486Z,10.77
2022-10-11T08:08:51.288Z,7.80
2022-10-11T08:11:27.558Z,14.27
2022-10-11T08:13:56.323Z,16.92
2022-10-11T08:16:24.228Z,9.05
2022-10-11T08:18:52.202Z,10.27
2022-10-11T08:21:19.893Z,11.52
2022-10-11T08:23:47.679Z,9.20
2022-10-11T08:26:16.003Z,9.25
2022-10-11T08:28:44.030Z,14.10
2022-10-11T08:31:16.577Z,9.73
2022-10-11T08:33:44.479Z,9.25
2022-10-11T08:36:13.182Z,12.40
2022-10-11T08:38:41.819Z,13.80
2022-10-11T08:41:39.637Z,13.70
2022-10-11T08:45:10.637Z,10.17
2022-10-11T08:47:34.561Z,15.23
2022-10-11T08:50:04.603Z,12.15
2022-10-11T08:52:49.398Z,12.73
2022-10-11T08:55:25.276Z,9.55
2022-10-11T08:57:56.421Z,11.80
2022-10-11T09:00:27.252Z,10.30
2022-10-11T09:03:11.498Z,11.63
2022-10-11T09:05:57.697Z,13.65
2022-10-11T09:09:08.370Z,14.95
2022-10-11T09:11:57.737Z,11.90
2022-10-11T09:14:54.250Z,13.55
2022-10-11T09:17:25.482Z,12.40
2022-10-11T09:20:19.777Z,12.43
2022-10-11T09:23:09.195Z,12.48
2022-10-11T09:25:58.962Z,13.40
2022-10-11T09:29:17.003Z,11.55
2022-10-11T09:31:53.995Z,14.73
2022-10-11T09:34:32.602Z,12.75
2022-10-11T09:37:24.990Z,13.35
2022-10-11T09:40:03.672Z,13.80
2022-10-11T09:42:31.505Z,10.73
2022-10-11T09:45:02.299Z,17.75
2022-10-11T09:47:33.568Z,16.33
2022-10-11T09:50:30.906Z,15.40
2022-10-11T09:53:02.362Z,10.83
2022-10-11T09:55:53.225Z,14.52
2022-10-11T09:58:27.391Z,14.77
2022-10-11T10:01:08.269Z,11.45
2022-10-11T10:03:42.053Z,12.75
2022-10-11T10:06:24.484Z,13.87
2022-10-11T10:08:52.810Z,15.73
2022-10-11T10:11:21.197Z,16.17
2022-10-11T10:13:57.132Z,12.98
2022-10-11T10:16:33.981Z,15.82
2022-10-11T10:19:25.532Z,11.93
2022-10-11T10:21:56.184Z,9.68
2022-10-11T10:24:33.355Z,17.23
2022-10-11T10:27:30.746Z,13.05
2022-10-11T10:30:17.055Z,13.35
2022-10-11T10:33:04.191Z,13.53
2022-10-11T10:35:39.886Z,10.43
2022-10-11T10:38:27.921Z,10.90
2022-10-11T10:41:04.277Z,11.57
2022-10-11T10:43:38.771Z,9.32
2022-10-11T10:46:36.364Z,11.77
2022-10-11T10:52:37.521Z,10.25
2022-10-11T10:55:28.588Z,9.77
2022-10-11T10:58:24.369Z,15.23
2022-10-11T11:01:13.950Z,12.03
2022-10-11T11:03:56.957Z,11.27
2022-10-11T11:06:36.498Z,10.10
2022-10-11T11:09:10.785Z,12.98
2022-10-11T11:12:17.343Z,9.10
2022-10-11T11:14:58.820Z,11.30
2022-10-11T11:17:30.204Z,11.52
2022-10-11T11:20:30.160Z,14.57
2022-10-11T11:23:12.946Z,10.27
2022-10-11T11:26:04.610Z,10.85
2022-10-11T11:29:03.902Z,9.80
2022-10-11T11:31:55.306Z,11.65
2022-10-11T11:34:32.030Z,9.52
2022-10-11T11:37:11.582Z,15.27
2022-10-11T11:39:55.883Z,8.30
2022-10-11T11:42:45.442Z,8.77
2022-10-11T11:45:21.603Z,13.18
2022-10-11T11:48:20.274Z,10.65
2022-10-11T11:51:30.516Z,10.15
2022-10-11T11:54:20.845Z,11.05
2022-10-11T11:57:14.728Z,9.10
2022-10-11T11:59:58.012Z,10.98
2022-10-11T12:03:00.638Z,11.57
2022-10-11T12:05:34.019Z,8.43
2022-10-11T12:08:08.623Z,8.85
2022-10-11T12:11:00.347Z,6.70
2022-10-11T12:13:35.099Z,7.63
2022-10-11T12:16:14.331Z,9.98
2022-10-11T12:18:56.380Z,7.65
2022-10-11T12:21:38.959Z,10.55
2022-10-11T12:24:22.909Z,10.30
2022-10-11T12:26:55.906Z,8.88
2022-10-11T12:29:43.023Z,7.68
2022-10-11T12:32:12.212Z,8.60
2022-10-11T12:34:43.133Z,9.23
2022-10-11T12:37:19.958Z,7.70
2022-10-11T12:39:56.399Z,8.27
2022-10-11T12:42:29.639Z,9.18
2022-10-11T12:45:14.908Z,7.53
2022-10-11T12:48:01.488Z,6.63
2022-10-11T12:51:02.909Z,6.97
2022-10-11T12:54:28.988Z,8.93
2022-10-11T12:57:12.140Z,11.93
2022-10-11T12:59:45.784Z,7.63
2022-10-11T13:02:44.699Z,10.00
2022-10-11T13:05:26.696Z,8.83
2022-10-11T13:07:57.727Z,7.97
2022-10-11T13:10:36.540Z,11.02
2022-10-11T13:13:10.496Z,9.65
2022-10-11T13:15:39.072Z,10.27
2022-10-11T13:18:06.768Z,9.13
2022-10-11T13:20:38.770Z,10.80
2022-10-11T13:23:30.556Z,11.00
2022-10-11T13:26:01.515Z,10.45
2022-10-11T13:28:34.161Z,8.27
2022-10-11T13:31:07.354Z,10.90
2022-10-11T13:33:42.688Z,9.27
2022-10-11T13:36:17.932Z,9.88
2022-10-11T13:39:05.990Z,8.13
2022-10-11T13:41:35.472Z,15.00
2022-10-11T13:44:04.575Z,13.53
2022-10-11T13:46:33.857Z,8.35
2022-10-11T13:49:24.288Z,11.77
2022-10-11T13:52:01.945Z,11.38
2022-10-11T13:54:59.228Z,9.02
2022-10-11T13:57:46.520Z,11.03
2022-10-11T14:00:20.277Z,9.63
2022-10-11T14:03:13.797Z,10.10
2022-10-11T14:05:54.342Z,9.20
2022-10-11T14:08:33.668Z,11.85
2022-10-11T14:11:06.286Z,10.30
2022-10-11T14:13:42.749Z,8.85
2022-10-11T14:16:21.168Z,10.77
2022-10-11T14:18:52.461Z,11.18
2022-10-11T14:21:20.471Z,10.20
2022-10-11T14:23:55.572Z,10.50
2022-10-11T14:26:24.996Z,8.68
2022-10-11T14:28:58.968Z,11.40
2022-10-11T14:31:30.751Z,13.10
2022-10-11T14:33:59.169Z,13.13
2022-10-11T14:36:26.966Z,9.90
2022-10-11T14:38:55.029Z,15.88
2022-10-11T14:41:22.864Z,14.30
2022-10-11T14:43:50.749Z,9.70
2022-10-11T14:46:28.012Z,14.57
2022-10-11T14:48:56.732Z,12.67
2022-10-11T14:51:32.654Z,14.23
2022-10-11T14:54:00.511Z,14.23
2022-10-11T14:56:32.507Z,14.55
2022-10-11T14:59:00.752Z,14.15
2022-10-11T15:02:02.069Z,14.27
2022-10-11T15:04:30.810Z,12.52
2022-10-11T15:06:59.229Z,12.10
2022-10-11T15:09:31.013Z,13.65
2022-10-11T15:12:00.515Z,19.85
2022-10-11T15:14:28.840Z,13.73
2022-10-11T15:16:59.015Z,14.82
2022-10-11T15:19:29.624Z,13.27
2022-10-11T15:21:59.235Z,17.33
2022-10-11T15:24:28.660Z,15.98
2022-10-11T15:27:13.010Z,14.77
2022-10-11T15:29:41.726Z,17.23
2022-10-11T15:32:09.739Z,16.85
2022-10-11T15:34:39.921Z,15.93
2022-10-11T15:37:10.326Z,16.05
2022-10-11T15:39:38.408Z,14.27
2022-10-11T15:42:07.920Z,13.65
2022-10-11T15:44:37.614Z,15.38
2022-10-11T15:47:07.013Z,16.60
2022-10-11T15:49:37.095Z,14.27
2022-10-11T15:52:08.017Z,16.73
2022-10-11T15:54:36.769Z,12.95
2022-10-11T15:57:04.650Z,17.50
2022-10-11T15:59:32.521Z,11.80
2022-10-11T16:02:00.648Z,10.98
2022-10-11T16:04:29.181Z,13.57
2022-10-11T16:06:58.056Z,11.80
2022-10-11T16:09:28.028Z,15.52
2022-10-11T16:11:57.581Z,10.65
2022-10-11T16:14:26.742Z,12.82
2022-10-11T16:16:55.323Z,14.03
2022-10-11T16:19:23.451Z,11.98
2022-10-11T16:21:54.721Z,11.10
2022-10-11T16:24:23.607Z,12.15
2022-10-11T16:26:52.321Z,13.77
2022-10-11T16:29:24.881Z,12.80
2022-10-11T16:31:54.797Z,13.13
2022-10-11T16:34:24.186Z,15.15
2022-10-11T16:36:52.341Z,16.10
2022-10-11T16:39:21.715Z,14.25
2022-10-11T16:41:51.275Z,11.77
2022-10-11T16:47:14.077Z,16.88
2022-10-11T16:49:43.553Z,16.65
2022-10-11T16:52:14.645Z,15.98
2022-10-11T16:54:48.884Z,17.17
2022-10-11T16:57:25.274Z,10.23
2022-10-11T16:59:54.221Z,13.73
2022-10-11T17:02:32.364Z,15.77
2022-10-11T17:05:03.850Z,16.02
2022-10-11T17:07:32.752Z,15.47
2022-10-11T17:10:04.817Z,13.40
2022-10-11T17:12:36.235Z,14.55
2022-10-11T17:15:06.328Z,13.48
2022-10-11T17:17:35.355Z,16.00
2022-10-11T17:20:05.297Z,15.27
2022-10-11T17:22:34.128Z,17.83
2022-10-11T17:25:06.201Z,13.32
2022-10-11T17:27:34.108Z,15.85
2022-10-11T17:30:01.765Z,19.48
2022-10-11T17:32:29.797Z,14.13
2022-10-11T17:34:59.535Z,14.48
2022-10-11T17:37:28.833Z,17.27
2022-10-11T17:40:03.751Z,14.43
2022-10-11T17:42:44.773Z,16.92
2022-10-11T17:45:17.337Z,16.73
2022-10-11T17:47:50.121Z,12.80
2022-10-11T17:50:22.278Z,15.00
2022-10-11T17:52:54.624Z,13.23
2022-10-11T17:55:23.629Z,12.70
2022-10-11T17:57:53.071Z,15.77
2022-10-11T18:00:21.620Z,13.65
2022-10-11T18:02:50.426Z,14.68
2022-10-11T18:05:18.401Z,14.43
2022-10-11T18:07:46.243Z,17.52
2022-10-11T18:10:14.328Z,13.30
2022-10-11T18:12:42.047Z,15.65
2022-10-11T18:15:10.303Z,13.88
2022-10-11T18:17:38.003Z,13.82
2022-10-11T18:20:06.448Z,15.25
2022-10-11T18:22:34.986Z,17.70
2022-10-11T18:25:03.613Z,15.48
2022-10-11T18:27:31.464Z,18.90
2022-10-11T18:29:59.655Z,16.63
2022-10-11T18:32:43.501Z,17.77
2022-10-11T18:35:12.370Z,19.03
2022-10-11T18:37:43.442Z,17.20
2022-10-11T18:40:14.587Z,21.20
2022-10-11T18:42:46.246Z,20.02
2022-10-11T18:45:14.188Z,16.10
2022-10-11T18:47:41.904Z,18.13
2022-10-11T18:50:10.262Z,17.13
2022-10-11T18:52:42.454Z,17.83
2022-10-11T18:55:13.116Z,15.15
2022-10-11T18:57:42.485Z,11.25
2022-10-11T19:00:38.950Z,17.30
2022-10-11T19:03:02.653Z,13.88
2022-10-11T19:05:31.079Z,15.40
2022-10-11T19:07:59.168Z,13.65
2022-10-11T19:10:26.913Z,13.13
2022-10-11T19:12:54.848Z,13.63
2022-10-11T19:15:27.864Z,11.02
2022-10-11T19:17:56.821Z,12.45
2022-10-11T19:20:24.623Z,12.32
2022-10-11T19:22:55.182Z,15.27
2022-10-11T19:25:23.269Z,14.37
2022-10-11T19:30:49.844Z,14.77
2022-10-11T19:33:18.067Z,18.83
2022-10-11T19:35:58.555Z,14.02
2022-10-11T19:38:27.016Z,14.37
2022-10-11T19:40:58.248Z,15.02
2022-10-11T19:43:26.429Z,13.77
2022-10-11T19:46:02.632Z,14.88
2022-10-11T19:48:31.241Z,17.33
2022-10-11T19:51:12.576Z,13.83
2022-10-11T19:53:41.170Z,13.32
2022-10-11T19:56:13.064Z,15.27
2022-10-11T19:58:44.676Z,16.27
2022-10-11T20:01:19.326Z,17.63
2022-10-11T20:03:53.412Z,14.23
2022-10-11T20:06:25.325Z,20.70
2022-10-11T20:09:16.579Z,18.90
2022-10-11T20:11:42.417Z,14.57
2022-10-11T20:14:10.508Z,13.60
2022-10-11T20:16:38.724Z,13.23
2022-10-11T20:19:06.936Z,15.05
2022-10-11T20:21:35.500Z,11.07
2022-10-11T20:24:04.586Z,20.88
2022-10-11T20:26:33.937Z,15.57
2022-10-11T20:29:02.036Z,19.83
2022-10-11T20:31:39.292Z,17.30
2022-10-11T20:34:07.751Z,14.50
2022-10-11T20:36:36.524Z,15.27
2022-10-11T20:39:06.338Z,15.80
2022-10-11T20:41:40.281Z,11.83
2022-10-11T20:44:10.212Z,17.48
2022-10-11T20:46:39.734Z,11.57
2022-10-11T20:49:11.910Z,16.10
2022-10-11T20:51:42.022Z,14.95
2022-10-11T20:54:11.090Z,14.60
2022-10-11T20:56:40.271Z,18.58
2022-10-11T20:59:08.728Z,18.25
2022-10-11T21:01:39.993Z,17.58
2022-10-11T21:04:11.325Z,13.77
2022-10-11T21:06:39.372Z,17.47
2022-10-11T21:09:08.529Z,20.05
2022-10-11T21:11:39.795Z,18.15
2022-10-11T21:14:07.992Z,18.10
2022-10-11T21:16:36.208Z,14.02
2022-10-11T21:19:04.670Z,19.33
2022-10-11T21:21:33.140Z,19.83
2022-10-11T21:24:03.067Z,15.95
2022-10-11T21:26:31.883Z,20.67
2022-10-11T21:29:00.133Z,16.45
2022-10-11T21:31:34.035Z,18.17
2022-10-11T21:34:05.709Z,17.08
2022-10-11T21:36:34.275Z,13.80
2022-10-11T21:39:02.148Z,14.43
2022-10-11T21:41:34.565Z,15.85
2022-10-11T21:44:02.785Z,17.90
2022-10-11T21:46:54.467Z,20.42
2022-10-11T21:49:21.339Z,19.17
2022-10-11T21:51:49.600Z,18.30
2022-10-11T21:54:18.415Z,19.60
2022-10-11T21:56:46.662Z,18.37
2022-10-11T21:59:14.731Z,15.43
2022-10-11T22:01:44.142Z,16.80
2022-10-11T22:04:13.086Z,18.05
2022-10-11T22:06:41.273Z,18.88
2022-10-11T22:09:10.007Z,18.17
2022-10-11T22:11:38.490Z,19.60
2022-10-11T22:14:07.738Z,12.43
2022-10-11T22:16:36.071Z,14.45
2022-10-11T22:19:04.927Z,19.92
2022-10-11T22:21:33.016Z,16.63
2022-10-11T22:24:01.534Z,18.60
2022-10-11T22:26:31.586Z,19.52
2022-10-11T22:29:00.827Z,15.60
2022-10-11T22:31:29.749Z,17.08
2022-10-11T22:34:00.051Z,17.27
2022-10-11T22:36:30.788Z,13.35
2022-10-11T22:38:59.459Z,16.20
2022-10-11T22:41:27.579Z,17.80
2022-10-11T22:43:55.629Z,19.88
2022-10-11T22:46:23.676Z,14.43
2022-10-11T22:48:51.793Z,22.27
2022-10-11T22:51:19.876Z,11.98
2022-10-11T22:53:48.307Z,12.50
2022-10-11T22:56:16.492Z,16.13
2022-10-11T22:58:44.586Z,15.97
2022-10-11T23:01:14.687Z,15.13
2022-10-11T23:03:43.178Z,15.75
2022-10-11T23:06:11.507Z,20.23
2022-10-11T23:08:39.625Z,18.27
2022-10-11T23:11:08.320Z,15.50
2022-10-11T23:13:36.638Z,16.77
2022-10-11T23:16:09.666Z,18.60
2022-10-11T23:18:38.918Z,18.67
2022-10-11T23:21:07.986Z,21.02
2022-10-11T23:23:36.462Z,13.10
2022-10-11T23:26:11.372Z,16.77
2022-10-11T23:28:40.415Z,19.17
2022-10-11T23:31:26.586Z,13.48
2022-10-11T23:33:55.566Z,24.23
2022-10-11T23:36:26.155Z,13.50
2022-10-11T23:38:59.413Z,18.23
2022-10-11T23:41:29.764Z,16.20
2022-10-11T23:43:59.458Z,19.77
2022-10-11T23:46:27.356Z,17.17
2022-10-11T23:48:55.746Z,15.23
2022-10-11T23:51:23.710Z,15.85
2022-10-11T23:53:51.935Z,17.73
2022-10-11T23:56:19.894Z,17.52
2022-10-11T23:58:48.209Z,15.25
